»·PEaware :: JZA484 KSNA-KSFO

JZA484 :: KSNA-KSFO

FLIGHT INFORMATION

Flight Status: Arrived
Operator:
Air Canada Jazz
More flights by this operator :: More flights under this callsign
Pilot: William B. (6705)
Aircraft: DEHAVILLAND DASH 8 400
(DH8D)
More flights by this aircraft type
Origin: KSNA John Wayne-Orange Co
United States
Destination: KSFO San Francisco Intl
United States
More flights between these airports :: More routes between these airports
Route: +CHANL2 RZS J501 BSR BSR2
File this flight plan on PilotEdge
Remarks: Majestic dash 8 PFPX
Altitude:
(Current/Filed)
28,000ft
Speed:
(Current/Filed)
200kts
Departed: 06-Apr-15 12:01 PM
Arrived: 06-Apr-15 01:13 PM
Distance/Time
Traveled:
323nm/1:12
Distance/Time
To Go:
Arrived

Flight Plot

Page will automatically refresh every two minutes.


Map Options




Map Legend


Flown Route
Filed Route
Departure Airport
Arrival Airport
Navaid (VOR, NDB)
Fix

Horizontal Profiles

Position Reports

Time Latitude Longitude Heading Altitude Ground
Speed
06-Apr-15 11:27 33.682383 -117.860454 116 63ft 0kts
06-Apr-15 11:28 33.682383 -117.860454 116 63ft 0kts
06-Apr-15 11:29 33.682383 -117.860454 116 63ft 0kts
06-Apr-15 11:30 33.682383 -117.860453 116 63ft 0kts
06-Apr-15 11:31 33.682383 -117.860453 116 63ft 0kts
06-Apr-15 11:32 33.682383 -117.860453 116 63ft 0kts
06-Apr-15 11:33 33.682383 -117.860453 116 63ft 0kts
06-Apr-15 11:34 33.682383 -117.860453 116 63ft 0kts
06-Apr-15 11:35 33.682383 -117.860453 116 63ft 0kts
06-Apr-15 11:36 33.682383 -117.860453 116 63ft 0kts
06-Apr-15 11:37 33.682383 -117.860453 116 63ft 0kts
06-Apr-15 11:38 33.682383 -117.860453 116 63ft 0kts
06-Apr-15 11:39 33.682383 -117.860453 116 63ft 0kts
06-Apr-15 11:40 33.682383 -117.860453 116 63ft 0kts
06-Apr-15 11:41 33.682383 -117.860453 116 63ft 0kts
06-Apr-15 11:42 33.682383 -117.860453 116 63ft 0kts
06-Apr-15 11:43 33.682383 -117.860453 116 63ft 0kts
06-Apr-15 11:44 33.682383 -117.860453 116 63ft 0kts
06-Apr-15 11:45 33.682383 -117.860453 116 63ft 0kts
06-Apr-15 11:46 33.682383 -117.860453 116 63ft 0kts
06-Apr-15 11:47 33.682383 -117.860453 116 63ft 0kts
06-Apr-15 11:48 33.682383 -117.860453 116 63ft 0kts
06-Apr-15 11:49 33.682383 -117.860453 116 63ft 0kts
06-Apr-15 11:50 33.682383 -117.860453 116 63ft 0kts
06-Apr-15 11:51 33.682383 -117.860453 116 63ft 0kts
06-Apr-15 11:52 33.682383 -117.860453 116 63ft 0kts
06-Apr-15 11:53 33.682383 -117.860453 116 63ft 0kts
06-Apr-15 11:54 33.682529 -117.860799 116 63ft 4kts
06-Apr-15 11:55 33.682655 -117.861096 117 63ft 0kts
06-Apr-15 11:56 33.680547 -117.862754 279 63ft 0kts
06-Apr-15 11:57 33.681100 -117.864184 293 63ft 0kts
06-Apr-15 11:58 33.681427 -117.865209 258 63ft 4kts
06-Apr-15 11:59 33.680821 -117.865646 209 63ft 14kts
06-Apr-15 12:00 33.657957 -117.879114 201 1008ft 154kts
06-Apr-15 12:01 33.617649 -117.895154 200 3081ft 208kts
06-Apr-15 12:02 33.604166 -117.963823 262 5294ft 250kts
06-Apr-15 12:03 33.564321 -118.014932 193 8618ft 229kts
06-Apr-15 12:04 33.504280 -118.041206 208 10988ft 240kts
06-Apr-15 12:05 33.468649 -118.104568 248 13077ft 244kts
06-Apr-15 12:06 33.446207 -118.181662 247 15040ft 251kts
06-Apr-15 12:07 33.422983 -118.260652 246 17041ft 254kts
06-Apr-15 12:08 33.403303 -118.326948 245 18713ft 252kts
06-Apr-15 12:09 33.395199 -118.408432 279 20696ft 270kts
06-Apr-15 12:10 33.445971 -118.477991 306 22672ft 293kts
06-Apr-15 12:11 33.528023 -118.550131 312 23041ft 335kts
06-Apr-15 12:12 33.592105 -118.603010 312 23713ft 331kts
06-Apr-15 12:13 33.665460 -118.664645 310 25439ft 316kts
06-Apr-15 12:14 33.736890 -118.726308 310 26082ft 337kts
06-Apr-15 12:15 33.814482 -118.792263 311 26118ft 349kts
06-Apr-15 12:16 33.892528 -118.858474 311 26118ft 341kts
06-Apr-15 12:17 33.966759 -118.922157 310 26117ft 337kts
06-Apr-15 12:18 34.042738 -118.987509 311 26118ft 336kts
06-Apr-15 12:19 34.118031 -119.055879 299 26119ft 322kts
06-Apr-15 12:20 34.165697 -119.143081 291 26119ft 314kts
06-Apr-15 12:21 34.214785 -119.230459 292 26120ft 315kts
06-Apr-15 12:22 34.262954 -119.318289 292 26121ft 316kts
06-Apr-15 12:23 34.311336 -119.406688 292 26121ft 316kts
06-Apr-15 12:24 34.359830 -119.495630 292 26122ft 317kts
06-Apr-15 12:25 34.408519 -119.584981 292 26123ft 318kts
06-Apr-15 12:26 34.456773 -119.673931 292 26119ft 319kts
06-Apr-15 12:27 34.505619 -119.763345 296 26122ft 321kts
06-Apr-15 12:28 34.572473 -119.839115 308 26123ft 334kts
06-Apr-15 12:29 34.640864 -119.914012 308 26124ft 333kts
06-Apr-15 12:30 34.709030 -119.988553 308 26125ft 333kts
06-Apr-15 12:31 34.777484 -120.062467 307 26126ft 331kts
06-Apr-15 12:32 34.844997 -120.137817 306 26128ft 330kts
06-Apr-15 12:33 34.912040 -120.211751 307 26127ft 329kts
06-Apr-15 12:34 34.979668 -120.286425 307 26128ft 329kts
06-Apr-15 12:35 35.047526 -120.361388 308 26129ft 329kts
06-Apr-15 12:36 35.115555 -120.436815 308 26129ft 329kts
06-Apr-15 12:37 35.184420 -120.513281 308 26130ft 329kts
06-Apr-15 12:38 35.252829 -120.589506 308 26131ft 329kts
06-Apr-15 12:39 35.321559 -120.666228 309 26132ft 330kts
06-Apr-15 12:40 35.389653 -120.742438 309 26133ft 331kts
06-Apr-15 12:41 35.456850 -120.817781 309 26134ft 332kts
06-Apr-15 12:42 35.524867 -120.893992 309 26139ft 332kts
06-Apr-15 12:43 35.592879 -120.970768 309 26140ft 332kts
06-Apr-15 12:44 35.660342 -121.047096 309 26141ft 332kts
06-Apr-15 12:45 35.728152 -121.123926 309 26142ft 331kts
06-Apr-15 12:46 35.796490 -121.201742 309 26143ft 331kts
06-Apr-15 12:47 35.867047 -121.282123 309 25936ft 335kts
06-Apr-15 12:48 35.936453 -121.361461 310 25020ft 333kts
06-Apr-15 12:49 36.004711 -121.439513 310 24110ft 329kts
06-Apr-15 12:50 36.071974 -121.517085 310 23205ft 329kts
06-Apr-15 12:51 36.141178 -121.596363 311 21729ft 337kts
06-Apr-15 12:52 36.213214 -121.671176 320 20305ft 337kts
06-Apr-15 12:53 36.288259 -121.734375 318 20078ft 313kts
06-Apr-15 12:54 36.359636 -121.796543 318 20079ft 312kts
06-Apr-15 12:55 36.432300 -121.859765 318 20065ft 312kts
06-Apr-15 12:56 36.518007 -121.899161 342 18987ft 351kts
06-Apr-15 12:57 36.614539 -121.926144 341 17889ft 360kts
06-Apr-15 12:58 36.711922 -121.954974 342 16344ft 357kts
06-Apr-15 12:59 36.808073 -121.981717 344 14747ft 353kts
06-Apr-15 13:00 36.900439 -122.005192 344 13533ft 331kts
06-Apr-15 13:01 36.988039 -122.028131 344 12329ft 312kts
06-Apr-15 13:02 37.071756 -122.050281 345 10933ft 304kts
06-Apr-15 13:03 37.152583 -122.071512 345 10020ft 280kts
06-Apr-15 13:04 37.225607 -122.090618 345 9997ft 260kts
06-Apr-15 13:05 37.300730 -122.110538 345 9012ft 277kts
06-Apr-15 13:06 37.376699 -122.130684 346 8013ft 279kts
06-Apr-15 13:07 37.450763 -122.150248 346 7008ft 264kts
06-Apr-15 13:08 37.521439 -122.160693 346 5720ft 256kts
06-Apr-15 13:09 37.574432 -122.210634 294 4171ft 249kts
06-Apr-15 13:10 37.593723 -122.288379 275 1825ft 225kts
06-Apr-15 13:11 37.608725 -122.349924 297 451ft 145kts
06-Apr-15 13:12 37.621886 -122.382986 258 20ft 16kts
06-Apr-15 13:13 37.621739 -122.384810 276 20ft 2kts
06-Apr-15 13:14 37.619242 -122.383312 220 20ft 7kts
06-Apr-15 13:15 37.619225 -122.383683 297 20ft 0kts

Navigation Log

Ident Type
Flight plan parsing failed, navigation log unavailable